Time;durP1;ratioP1;P1;durP2;ratioP2;P2;SDS_P1;SDS_P2;PMS_P1;PMS_P2;Temp;Humidity;BMP_temperature;BMP_pressure;BME280_temperature;BME280_humidity;BME280_pressure;Samples;Min_cycle;Max_cycle;Signal;HPM_P1;HPM_P2
2023/08/16 00:00:21;;;;;;;2.73;1.93;;;17.30;99.90;;;;;;4943005;29;20254;-56
2023/08/16 00:02:48;;;;;;;2.57;1.50;;;17.20;99.90;;;;;;4940689;28;20235;-53
2023/08/16 00:05:15;;;;;;;3.80;1.70;;;17.20;99.90;;;;;;4942938;28;20940;-55
2023/08/16 00:07:42;;;;;;;2.00;1.90;;;17.10;99.90;;;;;;4946606;28;20190;-57
2023/08/16 00:10:11;;;;;;;2.43;1.60;;;17.10;99.90;;;;;;4926702;28;20214;-52
2023/08/16 00:12:38;;;;;;;5.43;1.80;;;17.10;99.90;;;;;;4931940;28;20203;-51
2023/08/16 00:15:08;;;;;;;3.40;1.77;;;17.10;99.90;;;;;;4944441;28;20218;-55
2023/08/16 00:17:34;;;;;;;3.03;1.50;;;17.10;99.90;;;;;;4941170;28;20299;-57
2023/08/16 00:20:03;;;;;;;4.03;1.67;;;17.00;99.90;;;;;;4945030;29;20202;-54
2023/08/16 00:22:29;;;;;;;1.47;1.37;;;16.90;99.90;;;;;;4946646;28;20191;-56
2023/08/16 00:24:56;;;;;;;4.73;1.87;;;16.90;99.90;;;;;;4929992;28;20702;-51
2023/08/16 00:27:23;;;;;;;2.70;1.90;;;16.90;99.90;;;;;;4928123;28;20209;-56
2023/08/16 00:29:50;;;;;;;3.70;1.87;;;16.80;99.90;;;;;;4946237;28;20207;-55
2023/08/16 00:32:18;;;;;;;3.63;1.90;;;16.80;99.90;;;;;;4933172;29;20257;-55
2023/08/16 00:34:45;;;;;;;2.80;2.00;;;16.80;99.90;;;;;;4923948;29;20274;-55
2023/08/16 00:37:12;;;;;;;3.23;1.83;;;16.70;99.90;;;;;;4939041;28;20199;-52
2023/08/16 00:39:39;;;;;;;3.67;2.43;;;16.70;99.90;;;;;;4933877;28;20257;-55
2023/08/16 00:42:06;;;;;;;5.53;1.87;;;16.70;99.90;;;;;;4940222;28;20202;-55
2023/08/16 00:44:34;;;;;;;2.47;1.77;;;16.70;99.90;;;;;;4937411;28;20284;-54
2023/08/16 00:47:01;;;;;;;2.37;1.73;;;16.70;99.90;;;;;;4947498;28;20280;-52
2023/08/16 00:49:32;;;;;;;4.63;1.80;;;16.60;99.90;;;;;;4937881;28;20222;-55
2023/08/16 00:51:59;;;;;;;4.80;1.93;;;16.60;99.90;;;;;;4945325;29;20627;-51
2023/08/16 00:54:26;;;;;;;2.93;1.80;;;16.50;99.90;;;;;;4943047;28;20190;-55
2023/08/16 00:56:53;;;;;;;3.93;1.50;;;16.50;99.90;;;;;;4911558;29;20217;-54
2023/08/16 00:59:21;;;;;;;5.37;1.87;;;16.40;99.90;;;;;;4933667;28;20194;-57
2023/08/16 01:01:48;;;;;;;3.40;1.73;;;16.40;99.90;;;;;;4945697;28;20675;-57
2023/08/16 01:04:16;;;;;;;3.07;1.90;;;16.50;99.90;;;;;;4939895;28;21625;-53
2023/08/16 01:06:45;;;;;;;3.93;1.70;;;16.60;99.90;;;;;;4944553;28;20234;-54
2023/08/16 01:09:12;;;;;;;2.80;1.53;;;16.60;99.90;;;;;;4942198;28;20206;-52
2023/08/16 01:11:46;;;;;;;4.57;2.10;;;16.50;99.90;;;;;;4931978;28;20301;-57
2023/08/16 01:14:18;;;;;;;4.67;1.57;;;16.50;99.90;;;;;;4935107;28;20214;-52
2023/08/16 01:16:47;;;;;;;3.03;1.70;;;16.30;99.90;;;;;;4947439;28;20253;-56
2023/08/16 01:19:26;;;;;;;2.03;1.43;;;16.30;99.90;;;;;;4948028;28;20202;-51
2023/08/16 01:22:05;;;;;;;3.63;1.80;;;16.30;99.90;;;;;;4935669;28;20551;-57
2023/08/16 01:24:39;;;;;;;5.40;2.00;;;16.30;99.90;;;;;;4946809;28;20250;-54
2023/08/16 01:27:07;;;;;;;2.57;1.53;;;16.20;99.90;;;;;;4925732;28;20265;-52
2023/08/16 01:29:35;;;;;;;5.83;1.77;;;16.30;99.90;;;;;;4933330;28;20225;-52
2023/08/16 01:32:02;;;;;;;3.83;1.90;;;16.40;99.90;;;;;;4943862;28;20663;-53
2023/08/16 01:34:31;;;;;;;5.00;1.80;;;16.40;99.90;;;;;;4943760;28;20224;-53
2023/08/16 01:36:58;;;;;;;2.87;1.57;;;16.40;99.90;;;;;;4939823;28;20215;-52
2023/08/16 01:39:25;;;;;;;2.73;1.57;;;16.50;99.90;;;;;;4939436;28;20203;-51
2023/08/16 01:41:55;;;;;;;5.47;1.63;;;16.50;99.90;;;;;;4926503;28;20340;-56
2023/08/16 01:44:26;;;;;;;1.70;1.57;;;16.50;99.90;;;;;;4941818;29;20655;-55
2023/08/16 01:46:55;;;;;;;7.80;2.40;;;16.40;99.90;;;;;;4936166;28;20303;-54
2023/08/16 01:49:23;;;;;;;3.33;2.23;;;16.30;99.90;;;;;;4943100;28;20899;-56
2023/08/16 01:51:50;;;;;;;2.80;1.90;;;16.30;99.90;;;;;;4951708;28;20222;-57
2023/08/16 01:54:17;;;;;;;2.90;1.97;;;16.20;99.90;;;;;;4933904;29;20800;-57
2023/08/16 01:56:44;;;;;;;2.37;2.10;;;16.10;99.90;;;;;;4935309;28;20213;-51
2023/08/16 01:59:10;;;;;;;5.00;2.37;;;16.10;99.90;;;;;;4925346;28;20206;-53
2023/08/16 02:01:39;;;;;;;3.90;2.00;;;16.10;99.90;;;;;;4922553;28;20196;-53
2023/08/16 02:04:06;;;;;;;3.30;2.03;;;16.10;99.90;;;;;;4942846;29;20210;-53
2023/08/16 02:06:32;;;;;;;3.80;2.23;;;16.10;99.90;;;;;;4947572;28;20211;-57
2023/08/16 02:08:59;;;;;;;3.80;1.97;;;16.10;99.90;;;;;;4920336;29;20210;-49
2023/08/16 02:11:26;;;;;;;2.60;2.10;;;16.00;99.90;;;;;;4925090;28;20225;-55
2023/08/16 02:13:53;;;;;;;4.50;1.87;;;15.90;99.90;;;;;;4929011;28;20210;-51
2023/08/16 02:16:27;;;;;;;2.37;2.17;;;15.80;99.90;;;;;;4918760;28;20237;-55
2023/08/16 02:18:55;;;;;;;5.23;1.80;;;15.70;99.90;;;;;;4943515;29;20266;-54
2023/08/16 02:21:22;;;;;;;4.43;2.00;;;15.70;99.90;;;;;;4941206;28;20939;-56
2023/08/16 02:23:49;;;;;;;3.07;2.00;;;15.70;99.90;;;;;;4950603;28;20214;-54
2023/08/16 02:26:16;;;;;;;2.13;1.50;;;15.70;99.90;;;;;;4933376;28;20253;-56
2023/08/16 02:28:44;;;;;;;2.00;1.80;;;15.60;99.90;;;;;;4931143;28;20293;-54
2023/08/16 02:31:11;;;;;;;2.00;1.80;;;15.60;99.90;;;;;;4924999;29;20284;-53
2023/08/16 02:33:38;;;;;;;2.40;1.80;;;15.60;99.90;;;;;;4938857;28;20208;-54
2023/08/16 02:36:06;;;;;;;9.70;2.27;;;15.60;99.90;;;;;;4942631;29;20638;-54
2023/08/16 02:38:33;;;;;;;3.00;1.93;;;15.70;99.90;;;;;;4943783;28;20249;-56
2023/08/16 02:41:01;;;;;;;3.97;2.10;;;15.80;99.90;;;;;;4937833;28;20205;-55
2023/08/16 02:43:28;;;;;;;2.83;2.10;;;15.80;99.90;;;;;;4930969;28;22170;-55
2023/08/16 02:45:55;;;;;;;4.10;2.60;;;15.80;99.90;;;;;;4949673;28;20219;-52
2023/08/16 02:48:22;;;;;;;2.70;1.97;;;15.70;99.90;;;;;;4938937;28;20249;-54
2023/08/16 02:50:49;;;;;;;2.90;2.00;;;15.60;99.90;;;;;;4952864;28;20222;-55
2023/08/16 02:53:17;;;;;;;2.77;2.40;;;15.50;99.90;;;;;;4947168;28;20862;-54
2023/08/16 02:55:44;;;;;;;2.67;1.90;;;15.60;99.90;;;;;;4923479;29;20278;-54
2023/08/16 02:58:11;;;;;;;4.03;2.40;;;15.60;99.90;;;;;;4932000;29;20203;-54
2023/08/16 03:00:39;;;;;;;2.40;2.20;;;15.70;99.90;;;;;;4930890;28;20285;-56
2023/08/16 03:03:06;;;;;;;2.27;2.10;;;15.70;99.90;;;;;;4945865;28;20202;-54
2023/08/16 03:05:33;;;;;;;7.37;3.33;;;15.70;99.90;;;;;;4944513;28;20210;-56
2023/08/16 03:08:00;;;;;;;6.20;2.53;;;15.60;99.90;;;;;;4946415;28;20730;-53
2023/08/16 03:10:28;;;;;;;3.00;2.50;;;15.60;99.90;;;;;;4939060;28;20213;-53
2023/08/16 03:12:56;;;;;;;6.63;2.67;;;15.60;99.90;;;;;;4946412;28;20203;-54
2023/08/16 03:15:23;;;;;;;5.53;2.47;;;15.60;99.90;;;;;;4928983;28;21957;-57
2023/08/16 03:17:50;;;;;;;4.57;2.47;;;15.60;99.90;;;;;;4947961;28;20211;-53
2023/08/16 03:20:16;;;;;;;5.10;2.77;;;15.70;99.90;;;;;;4934652;28;20199;-54
2023/08/16 03:22:43;;;;;;;4.70;2.80;;;15.70;99.90;;;;;;4953783;28;20573;-55
2023/08/16 03:25:12;;;;;;;6.77;3.10;;;15.70;99.90;;;;;;4937332;28;20234;-52
2023/08/16 03:27:40;;;;;;;3.97;2.67;;;15.60;99.90;;;;;;4946475;28;20203;-52
2023/08/16 03:30:09;;;;;;;5.73;2.70;;;15.60;99.90;;;;;;4944197;28;20277;-53
2023/08/16 03:32:36;;;;;;;5.57;3.00;;;15.60;99.90;;;;;;4927815;28;20229;-57
2023/08/16 03:35:05;;;;;;;3.20;2.80;;;15.60;99.90;;;;;;4931662;28;20246;-54
2023/08/16 03:37:32;;;;;;;3.40;2.90;;;15.60;99.90;;;;;;4945625;28;20206;-55
2023/08/16 03:39:59;;;;;;;5.33;2.97;;;15.60;99.90;;;;;;4944711;28;20743;-52
2023/08/16 03:42:26;;;;;;;6.80;3.10;;;15.60;99.90;;;;;;4949403;28;20210;-54
2023/08/16 03:44:54;;;;;;;4.40;2.70;;;15.60;99.90;;;;;;4944463;28;20232;-52
2023/08/16 03:47:21;;;;;;;5.07;2.90;;;15.60;99.90;;;;;;4930895;28;20597;-53
2023/08/16 03:49:48;;;;;;;6.17;2.90;;;15.60;99.90;;;;;;4937415;28;20215;-57
2023/08/16 03:52:14;;;;;;;8.50;3.00;;;15.60;99.90;;;;;;4951465;28;20940;-54
2023/08/16 03:54:41;;;;;;;5.80;3.57;;;15.60;99.90;;;;;;4948028;28;20195;-55
2023/08/16 03:57:08;;;;;;;6.67;3.83;;;15.60;99.90;;;;;;4941207;28;20203;-56
2023/08/16 03:59:35;;;;;;;4.30;3.50;;;15.60;99.90;;;;;;4947588;28;20194;-55
2023/08/16 04:02:03;;;;;;;6.30;3.87;;;15.60;99.90;;;;;;4943561;29;20274;-53
2023/08/16 04:04:30;;;;;;;7.77;3.90;;;15.50;99.90;;;;;;4924453;28;20203;-53
2023/08/16 04:06:57;;;;;;;13.77;4.13;;;15.40;99.90;;;;;;4943060;29;20206;-56
2023/08/16 04:09:25;;;;;;;10.30;4.37;;;15.30;99.90;;;;;;4946792;28;20199;-54
2023/08/16 04:11:52;;;;;;;7.57;4.47;;;15.30;99.90;;;;;;4938001;28;20229;-55
2023/08/16 04:14:19;;;;;;;5.73;4.20;;;15.20;99.90;;;;;;4946277;29;20198;-52
2023/08/16 04:16:46;;;;;;;8.60;4.20;;;15.20;99.90;;;;;;4945488;28;20822;-56
2023/08/16 04:19:14;;;;;;;6.80;4.30;;;15.20;99.90;;;;;;4930602;28;20392;-51
2023/08/16 04:21:41;;;;;;;6.63;3.77;;;15.20;99.90;;;;;;4947716;28;20730;-58
2023/08/16 04:24:08;;;;;;;7.63;3.77;;;15.20;99.90;;;;;;4946529;28;20282;-56
2023/08/16 04:26:35;;;;;;;8.07;4.83;;;15.20;99.90;;;;;;4957437;28;20249;-51
2023/08/16 04:29:04;;;;;;;9.53;5.03;;;15.20;99.90;;;;;;4921114;29;20207;-54
2023/08/16 04:31:31;;;;;;;6.10;5.07;;;15.10;99.90;;;;;;4937698;28;20714;-56
2023/08/16 04:33:58;;;;;;;6.03;5.13;;;15.00;99.90;;;;;;4941568;28;20206;-53
2023/08/16 04:36:26;;;;;;;13.13;5.93;;;14.90;99.90;;;;;;4911983;29;20237;-53
2023/08/16 04:38:53;;;;;;;8.67;5.07;;;14.90;99.90;;;;;;4941507;28;20240;-55
2023/08/16 04:41:20;;;;;;;8.60;5.23;;;14.90;99.90;;;;;;4951864;28;20195;-49
2023/08/16 04:43:47;;;;;;;7.93;5.60;;;15.00;99.90;;;;;;4954412;28;20191;-50
2023/08/16 04:46:14;;;;;;;6.77;6.07;;;15.10;99.90;;;;;;4945883;28;20234;-51
2023/08/16 04:48:40;;;;;;;11.80;5.97;;;15.10;99.90;;;;;;4944473;28;21086;-57
2023/08/16 04:51:07;;;;;;;6.90;5.93;;;15.10;99.90;;;;;;4910188;29;20211;-52
2023/08/16 04:53:36;;;;;;;6.87;4.90;;;15.10;99.90;;;;;;4938098;28;20679;-57
2023/08/16 04:56:02;;;;;;;9.40;6.07;;;15.00;99.90;;;;;;4944599;29;20218;-56
2023/08/16 04:58:30;;;;;;;9.20;5.90;;;15.00;99.90;;;;;;4947937;28;20642;-55
2023/08/16 05:00:57;;;;;;;6.63;6.00;;;15.00;99.90;;;;;;4944114;28;21010;-56
2023/08/16 05:03:24;;;;;;;7.53;5.67;;;15.00;99.90;;;;;;4949083;28;20205;-54
2023/08/16 05:05:57;;;;;;;9.20;6.43;;;15.00;99.90;;;;;;4923140;28;20294;-52
2023/08/16 05:08:24;;;;;;;9.90;6.13;;;15.00;99.90;;;;;;4928865;28;20252;-55
2023/08/16 05:10:53;;;;;;;6.60;5.80;;;15.00;99.90;;;;;;4944194;28;20203;-53
2023/08/16 05:13:21;;;;;;;5.97;5.20;;;15.00;99.90;;;;;;4934278;29;20219;-52
2023/08/16 05:15:48;;;;;;;8.10;4.90;;;15.00;99.90;;;;;;4924365;28;20290;-57
2023/08/16 05:18:15;;;;;;;7.83;4.40;;;15.00;99.90;;;;;;4941492;28;20667;-60
2023/08/16 05:20:43;;;;;;;5.60;4.57;;;15.00;99.90;;;;;;4944630;28;20234;-47
2023/08/16 05:23:10;;;;;;;7.20;4.50;;;15.00;99.90;;;;;;4921397;28;20297;-63
2023/08/16 05:25:37;;;;;;;5.97;4.93;;;15.00;99.90;;;;;;4940034;28;20211;-48
2023/08/16 05:28:06;;;;;;;6.00;5.40;;;15.10;99.90;;;;;;4947366;28;20658;-60
2023/08/16 05:30:33;;;;;;;5.30;4.90;;;15.10;99.90;;;;;;4942266;29;20199;-52
2023/08/16 05:33:00;;;;;;;5.83;5.03;;;15.20;99.90;;;;;;4948950;28;20254;-49
2023/08/16 05:35:26;;;;;;;11.57;5.53;;;15.30;99.90;;;;;;4938633;28;20276;-53
2023/08/16 05:37:54;;;;;;;9.30;6.10;;;15.40;99.90;;;;;;4927851;28;20277;-54
2023/08/16 05:40:21;;;;;;;10.47;5.80;;;15.50;99.90;;;;;;4937159;28;20211;-55
2023/08/16 05:42:48;;;;;;;7.77;6.00;;;15.50;99.90;;;;;;4945765;28;20315;-55
2023/08/16 05:45:16;;;;;;;8.27;5.93;;;15.50;99.90;;;;;;4943522;28;20265;-56
2023/08/16 05:47:43;;;;;;;7.07;5.37;;;15.60;99.90;;;;;;4945731;28;20205;-56
2023/08/16 05:50:10;;;;;;;6.10;5.57;;;15.70;99.90;;;;;;4943966;28;20202;-56
2023/08/16 05:52:37;;;;;;;10.40;5.33;;;15.80;99.90;;;;;;4940292;28;20277;-55
2023/08/16 05:55:04;;;;;;;10.33;7.27;;;15.80;99.90;;;;;;4926851;28;20258;-54
2023/08/16 05:57:31;;;;;;;8.63;6.40;;;15.90;99.90;;;;;;4943936;28;20183;-55
2023/08/16 05:59:58;;;;;;;14.33;7.90;;;15.90;99.90;;;;;;4951350;28;20615;-56
2023/08/16 06:02:27;;;;;;;11.80;7.87;;;16.00;99.90;;;;;;4944687;28;20355;-54
2023/08/16 06:04:53;;;;;;;7.47;6.47;;;16.10;99.90;;;;;;4946763;28;20309;-55
2023/08/16 06:07:21;;;;;;;7.63;5.73;;;16.20;99.90;;;;;;4940475;28;20198;-55
2023/08/16 06:09:50;;;;;;;12.30;7.30;;;16.20;99.90;;;;;;4929201;28;20238;-52
2023/08/16 06:12:17;;;;;;;10.00;6.53;;;16.30;99.90;;;;;;4946186;28;20221;-54
2023/08/16 06:14:44;;;;;;;10.93;7.23;;;16.30;99.90;;;;;;4954715;28;20599;-55
2023/08/16 06:17:11;;;;;;;15.47;7.37;;;16.40;99.90;;;;;;4940656;28;20211;-54
2023/08/16 06:19:39;;;;;;;14.80;7.87;;;16.50;99.90;;;;;;4941675;28;20302;-55
2023/08/16 06:22:06;;;;;;;11.60;6.80;;;16.50;99.90;;;;;;4947839;28;20230;-55
2023/08/16 06:24:35;;;;;;;10.27;5.60;;;16.60;99.90;;;;;;4913953;28;20364;-53
2023/08/16 06:27:02;;;;;;;14.43;5.80;;;16.70;99.90;;;;;;4943095;28;20198;-56
2023/08/16 06:29:29;;;;;;;6.93;3.30;;;16.70;99.90;;;;;;4944447;28;20262;-52
2023/08/16 06:31:55;;;;;;;7.53;3.50;;;16.70;99.90;;;;;;4946488;28;20206;-54
2023/08/16 06:34:24;;;;;;;6.60;3.17;;;16.80;99.90;;;;;;4947072;28;20202;-55
2023/08/16 06:36:52;;;;;;;4.93;3.07;;;16.80;99.90;;;;;;4947288;28;20238;-49
2023/08/16 06:39:20;;;;;;;7.37;2.97;;;16.90;99.90;;;;;;4911821;28;20203;-61
2023/08/16 06:41:46;;;;;;;5.83;2.87;;;17.00;99.90;;;;;;4941581;29;20214;-52
2023/08/16 06:44:13;;;;;;;9.47;2.77;;;17.00;99.90;;;;;;4936559;28;20206;-58
2023/08/16 06:46:40;;;;;;;6.27;3.03;;;17.10;99.90;;;;;;4941432;28;20210;-48
2023/08/16 06:49:07;;;;;;;10.40;3.40;;;17.20;99.90;;;;;;4933290;28;20289;-61
2023/08/16 06:51:34;;;;;;;10.30;2.80;;;17.20;99.90;;;;;;4930669;28;20226;-59
2023/08/16 06:54:02;;;;;;;5.73;2.70;;;17.30;99.90;;;;;;4933181;28;20852;-48
2023/08/16 06:56:29;;;;;;;7.90;2.73;;;17.40;99.90;;;;;;4919754;28;20289;-56
2023/08/16 06:58:56;;;;;;;4.97;2.27;;;17.50;99.90;;;;;;4948111;28;20202;-53
2023/08/16 07:01:23;;;;;;;6.07;2.07;;;17.60;99.90;;;;;;4945686;28;20194;-57
2023/08/16 07:03:50;;;;;;;4.43;2.03;;;17.60;99.90;;;;;;4938159;28;20980;-47
2023/08/16 07:06:18;;;;;;;5.97;1.80;;;17.50;99.90;;;;;;4937657;28;20219;-61
2023/08/16 07:08:44;;;;;;;2.73;1.67;;;17.50;99.90;;;;;;4944570;28;20206;-54
2023/08/16 07:11:13;;;;;;;5.43;1.50;;;17.60;99.90;;;;;;4930173;28;20213;-48
2023/08/16 07:13:39;;;;;;;6.33;1.80;;;17.50;99.90;;;;;;4931098;28;20934;-49
2023/08/16 07:16:40;;;;;;;3.47;1.40;;;17.60;99.90;;;;;;4945101;28;20222;-52
2023/08/16 07:19:23;;;;;;;6.70;1.70;;;17.70;99.90;;;;;;4940512;28;20554;-51
2023/08/16 07:21:57;;;;;;;3.23;1.47;;;17.80;99.90;;;;;;4954423;28;20218;-52
2023/08/16 07:24:30;;;;;;;2.73;1.40;;;17.90;99.90;;;;;;4944141;28;20675;-55
2023/08/16 07:27:11;;;;;;;3.90;1.53;;;18.00;99.90;;;;;;4915495;28;20249;-54
2023/08/16 07:29:53;;;;;;;4.47;2.10;;;18.10;99.90;;;;;;4941941;28;20706;-52
2023/08/16 07:35:58;;;;;;;5.80;2.03;;;18.30;99.90;;;;;;4940442;28;20707;-50
2023/08/16 07:39:09;;;;;;;6.00;1.97;;;18.30;99.90;;;;;;4943879;28;20225;-56
2023/08/16 07:41:50;;;;;;;4.13;1.77;;;18.40;99.90;;;;;;4927338;28;20315;-54
2023/08/16 07:44:27;;;;;;;5.83;1.80;;;18.40;99.90;;;;;;4943757;28;20259;-53
2023/08/16 07:47:15;;;;;;;2.83;1.70;;;18.50;99.90;;;;;;4942924;28;20240;-54
2023/08/16 07:49:47;;;;;;;5.13;1.50;;;18.50;99.90;;;;;;4948500;28;20575;-57
2023/08/16 07:52:21;;;;;;;3.60;1.50;;;18.60;99.90;;;;;;4938711;28;20219;-54
2023/08/16 07:54:51;;;;;;;3.93;1.30;;;18.60;99.90;;;;;;4944428;28;20755;-56
2023/08/16 07:57:18;;;;;;;7.03;1.80;;;18.60;99.90;;;;;;4923649;28;20889;-56
2023/08/16 07:59:46;;;;;;;2.13;1.13;;;18.70;99.90;;;;;;4947915;28;20191;-56
2023/08/16 08:02:13;;;;;;;2.63;1.47;;;18.80;99.90;;;;;;4938769;28;20209;-54
2023/08/16 08:04:40;;;;;;;2.27;1.47;;;18.80;99.90;;;;;;4944802;28;20594;-56
2023/08/16 08:07:07;;;;;;;4.20;1.30;;;18.80;99.90;;;;;;4944737;28;22912;-54
2023/08/16 08:09:34;;;;;;;3.23;1.40;;;18.90;99.90;;;;;;4951003;28;20215;-56
2023/08/16 08:12:01;;;;;;;5.70;1.40;;;18.90;99.90;;;;;;4921524;28;22255;-54
2023/08/16 08:14:32;;;;;;;5.83;1.33;;;19.00;99.90;;;;;;4949692;28;20198;-50
2023/08/16 08:17:15;;;;;;;4.77;1.37;;;19.20;99.90;;;;;;4943610;28;20195;-50
2023/08/16 08:20:03;;;;;;;4.40;1.00;;;19.30;99.90;;;;;;4937712;28;20206;-55
2023/08/16 08:22:55;;;;;;;7.60;1.83;;;19.30;99.90;;;;;;4949819;28;20202;-54
2023/08/16 08:25:51;;;;;;;4.83;1.63;;;19.40;99.90;;;;;;4939615;28;20309;-53
2023/08/16 08:28:34;;;;;;;3.23;1.10;;;19.50;99.90;;;;;;4907725;29;20631;-54
2023/08/16 08:31:05;;;;;;;6.30;1.00;;;19.40;99.90;;;;;;4949589;28;20186;-52
2023/08/16 08:33:52;;;;;;;5.13;1.27;;;19.40;99.90;;;;;;4948729;28;20266;-56
2023/08/16 08:36:23;;;;;;;2.57;1.47;;;19.40;99.90;;;;;;4940833;28;20214;-52
2023/08/16 08:39:06;;;;;;;3.87;1.20;;;19.50;99.90;;;;;;4945882;28;20260;-54
2023/08/16 08:41:34;;;;;;;3.23;1.13;;;19.60;99.90;;;;;;4945025;28;20257;-54
2023/08/16 08:44:03;;;;;;;4.07;1.20;;;19.60;99.90;;;;;;4926116;28;20206;-53
2023/08/16 08:46:35;;;;;;;6.37;1.40;;;19.80;99.90;;;;;;4953204;28;20715;-55
2023/08/16 08:49:15;;;;;;;2.40;0.90;;;19.80;99.90;;;;;;4933694;28;23084;-53
2023/08/16 08:51:50;;;;;;;2.90;1.40;;;19.80;99.90;;;;;;4941785;28;20210;-51
2023/08/16 08:54:18;;;;;;;3.60;1.23;;;20.00;99.90;;;;;;4946419;28;20222;-53
2023/08/16 08:56:56;;;;;;;1.57;1.17;;;20.00;99.90;;;;;;4935841;28;20227;-53
2023/08/16 08:59:24;;;;;;;3.20;1.03;;;20.00;99.90;;;;;;4931792;28;20211;-50
2023/08/16 09:01:58;;;;;;;4.30;1.37;;;20.10;99.90;;;;;;4949595;28;20217;-53
2023/08/16 09:04:50;;;;;;;3.90;1.13;;;20.10;99.90;;;;;;4945966;28;20195;-52
2023/08/16 09:07:39;;;;;;;2.53;1.20;;;20.20;99.90;;;;;;4956537;28;20245;-56
2023/08/16 09:10:36;;;;;;;2.90;1.10;;;20.30;99.90;;;;;;4945143;28;20243;-51
2023/08/16 09:13:14;;;;;;;1.80;0.97;;;20.30;99.90;;;;;;4924607;28;20297;-51
2023/08/16 09:15:50;;;;;;;1.83;1.07;;;20.30;99.90;;;;;;4945537;28;20217;-56
2023/08/16 09:18:26;;;;;;;4.43;1.20;;;20.30;99.90;;;;;;4952048;28;20195;-57
2023/08/16 09:21:01;;;;;;;2.00;0.90;;;20.30;99.90;;;;;;4935403;28;20334;-53
2023/08/16 09:23:29;;;;;;;5.10;1.40;;;20.40;99.90;;;;;;4947051;28;20694;-53
2023/08/16 09:26:02;;;;;;;2.00;1.00;;;20.40;99.90;;;;;;4942950;28;20207;-53
2023/08/16 09:28:31;;;;;;;5.60;1.30;;;20.50;99.90;;;;;;4934659;28;20293;-49
2023/08/16 09:31:10;;;;;;;2.37;1.10;;;20.40;99.90;;;;;;4926556;28;20194;-52
2023/08/16 09:33:44;;;;;;;2.83;1.50;;;20.50;99.90;;;;;;4946419;28;20329;-50
2023/08/16 09:36:21;;;;;;;5.07;1.20;;;20.50;99.90;;;;;;4938424;28;20305;-56
2023/08/16 09:38:58;;;;;;;2.72;1.17;;;20.50;99.90;;;;;;4949855;28;20207;-52
2023/08/16 09:41:47;;;;;;;4.38;1.95;;;20.60;99.90;;;;;;4943388;28;20209;-55
2023/08/16 09:44:32;;;;;;;2.47;1.37;;;20.70;99.90;;;;;;4924805;28;20318;-49
2023/08/16 09:47:15;;;;;;;2.55;1.27;;;20.80;99.90;;;;;;4946909;28;20202;-53
2023/08/16 09:49:51;;;;;;;2.78;1.00;;;20.70;99.90;;;;;;4943317;28;20252;-50
2023/08/16 09:52:25;;;;;;;2.70;1.23;;;20.80;99.90;;;;;;4939475;28;20327;-49
2023/08/16 09:55:03;;;;;;;5.43;1.60;;;20.80;99.90;;;;;;4949214;28;20317;-55
2023/08/16 09:57:40;;;;;;;1.42;1.15;;;20.90;99.90;;;;;;4942949;28;20210;-52
2023/08/16 10:00:28;;;;;;;2.40;1.52;;;20.90;99.90;;;;;;4927378;28;20257;-52
2023/08/16 10:02:58;;;;;;;4.15;1.45;;;21.10;99.90;;;;;;4950606;28;20201;-55
2023/08/16 10:05:31;;;;;;;1.92;1.05;;;21.20;99.90;;;;;;4944758;28;20228;-54
2023/08/16 10:08:10;;;;;;;3.25;1.30;;;21.00;99.90;;;;;;4942011;28;20631;-56
2023/08/16 10:10:45;;;;;;;2.90;1.45;;;21.00;99.90;;;;;;4954053;28;20203;-54
2023/08/16 10:13:23;;;;;;;1.38;1.00;;;21.00;99.90;;;;;;4921911;29;20210;-48
2023/08/16 10:15:56;;;;;;;3.63;1.02;;;21.10;99.90;;;;;;4930633;28;20237;-55
2023/08/16 10:18:29;;;;;;;3.03;1.30;;;21.10;99.90;;;;;;4949333;28;20195;-52
2023/08/16 10:21:00;;;;;;;0.95;0.90;;;21.20;99.90;;;;;;4942081;28;20641;-52
2023/08/16 10:23:34;;;;;;;2.03;0.93;;;21.20;99.90;;;;;;4950315;28;20191;-49
2023/08/16 10:26:05;;;;;;;4.82;1.85;;;21.40;99.90;;;;;;4944439;28;20217;-53
2023/08/16 10:28:43;;;;;;;5.15;1.23;;;21.40;99.90;;;;;;4942355;28;20201;-50
2023/08/16 10:31:19;;;;;;;2.90;1.20;;;21.40;99.90;;;;;;4914941;28;20234;-52
2023/08/16 10:33:57;;;;;;;2.08;1.45;;;21.40;99.90;;;;;;4946944;28;20214;-54
2023/08/16 10:36:26;;;;;;;3.20;1.48;;;21.50;99.90;;;;;;4933140;28;20237;-55
2023/08/16 10:39:00;;;;;;;1.30;0.95;;;21.50;99.90;;;;;;4938718;28;20746;-55
2023/08/16 10:41:48;;;;;;;4.95;1.23;;;21.40;99.90;;;;;;4950056;28;20818;-50
2023/08/16 10:44:26;;;;;;;2.30;0.95;;;21.50;99.90;;;;;;4939979;28;20191;-52
2023/08/16 10:46:56;;;;;;;4.18;1.35;;;21.50;99.90;;;;;;4924908;28;20285;-52
2023/08/16 10:49:40;;;;;;;2.47;1.27;;;21.60;99.90;;;;;;4947159;28;20233;-52
2023/08/16 10:52:29;;;;;;;2.85;1.42;;;21.60;99.90;;;;;;4935706;28;20210;-49
2023/08/16 10:55:07;;;;;;;5.13;1.73;;;21.70;99.90;;;;;;4942475;28;20245;-53
2023/08/16 10:57:52;;;;;;;3.75;1.77;;;21.70;99.90;;;;;;4943489;28;20624;-53
2023/08/16 11:00:32;;;;;;;5.43;1.80;;;21.70;99.90;;;;;;4940964;28;20199;-52
2023/08/16 11:03:20;;;;;;;1.83;1.20;;;21.70;99.90;;;;;;4914092;28;21090;-51
2023/08/16 11:06:07;;;;;;;4.00;1.00;;;21.70;99.90;;;;;;4950300;28;20230;-50
2023/08/16 11:08:42;;;;;;;5.05;2.55;;;21.70;99.90;;;;;;4940940;28;20201;-52
2023/08/16 11:11:16;;;;;;;20.98;9.30;;;21.80;99.90;;;;;;4947443;28;20201;-48
2023/08/16 11:13:44;;;;;;;3.90;1.70;;;22.00;99.90;;;;;;4948612;28;20218;-46
2023/08/16 11:16:15;;;;;;;2.13;1.15;;;22.10;99.90;;;;;;4940830;28;20235;-49
2023/08/16 11:18:44;;;;;;;4.18;1.48;;;22.10;99.90;;;;;;4911909;28;20826;-49
2023/08/16 11:21:17;;;;;;;3.72;1.60;;;22.20;99.90;;;;;;4953444;28;20289;-56
2023/08/16 11:23:45;;;;;;;3.17;1.55;;;22.10;99.90;;;;;;4943254;28;20194;-48
2023/08/16 11:26:20;;;;;;;8.18;1.40;;;22.30;99.90;;;;;;4955280;28;20230;-55
2023/08/16 11:28:48;;;;;;;6.15;1.30;;;22.40;99.90;;;;;;4947356;28;20210;-48
2023/08/16 11:31:23;;;;;;;3.25;1.10;;;22.30;99.90;;;;;;4943114;28;20202;-56
2023/08/16 11:33:50;;;;;;;2.28;1.20;;;22.40;99.90;;;;;;4926537;28;20225;-46
2023/08/16 11:36:32;;;;;;;3.72;1.20;;;22.50;99.90;;;;;;4950295;28;20219;-54
2023/08/16 11:39:04;;;;;;;2.90;1.17;;;22.50;99.90;;;;;;4936296;28;21162;-56
2023/08/16 11:41:39;;;;;;;2.75;1.40;;;22.60;99.90;;;;;;4952673;28;20739;-52
2023/08/16 11:44:16;;;;;;;3.58;1.40;;;22.70;99.90;;;;;;4953290;28;20194;-58
2023/08/16 11:46:48;;;;;;;0.93;0.82;;;22.90;99.90;;;;;;4944176;28;20657;-50
2023/08/16 11:49:26;;;;;;;3.15;1.20;;;22.90;99.90;;;;;;4927818;28;20338;-56
2023/08/16 11:52:12;;;;;;;2.63;1.33;;;22.80;99.90;;;;;;4946991;28;20202;-48
2023/08/16 11:54:42;;;;;;;3.00;1.08;;;22.80;99.90;;;;;;4940306;28;20226;-48
2023/08/16 11:57:19;;;;;;;1.85;1.08;;;22.80;99.90;;;;;;4945831;28;20191;-49
2023/08/16 12:00:14;;;;;;;5.82;1.27;;;22.70;99.90;;;;;;4943976;28;20195;-61
2023/08/16 12:03:02;;;;;;;2.70;1.10;;;22.70;99.90;;;;;;4947939;28;20675;-58
2023/08/16 12:05:36;;;;;;;3.03;0.95;;;22.90;99.90;;;;;;4923776;28;20226;-51
2023/08/16 12:08:14;;;;;;;3.83;1.17;;;23.10;99.90;;;;;;4945202;28;20222;-52
2023/08/16 12:11:08;;;;;;;4.45;1.20;;;23.20;99.90;;;;;;4947304;28;20281;-59
2023/08/16 12:13:41;;;;;;;2.17;1.17;;;23.00;99.90;;;;;;4947690;28;20216;-59
2023/08/16 12:16:13;;;;;;;3.88;1.35;;;23.00;99.90;;;;;;4947150;28;20846;-46
2023/08/16 12:18:43;;;;;;;5.68;1.10;;;23.20;99.90;;;;;;4937584;28;20214;-58
2023/08/16 12:21:17;;;;;;;5.03;1.65;;;23.30;99.90;;;;;;4925327;28;20341;-48
2023/08/16 12:23:58;;;;;;;2.88;1.20;;;23.30;99.90;;;;;;4942198;28;20250;-58
2023/08/16 12:26:57;;;;;;;2.03;1.27;;;23.40;99.90;;;;;;4930696;28;20506;-54
2023/08/16 12:29:29;;;;;;;3.78;1.48;;;23.50;99.90;;;;;;4938094;28;20203;-50
2023/08/16 12:32:15;;;;;;;3.83;1.58;;;23.60;99.90;;;;;;4946538;28;20211;-48
2023/08/16 12:34:49;;;;;;;2.88;1.20;;;23.80;99.90;;;;;;4946091;28;20227;-49
2023/08/16 12:37:35;;;;;;;4.07;1.63;;;23.90;99.90;;;;;;4916586;28;20309;-59
2023/08/16 12:40:16;;;;;;;1.40;1.30;;;23.80;99.90;;;;;;4947005;28;20613;-52
2023/08/16 12:45:44;;;;;;;3.55;1.40;;;23.80;99.90;;;;;;4884253;29;20315;-52
2023/08/16 12:48:16;;;;;;;3.17;1.40;;;23.90;99.90;;;;;;4943419;28;20627;-59
2023/08/16 12:51:08;;;;;;;3.00;1.30;;;23.80;99.90;;;;;;4944442;28;20206;-51
2023/08/16 12:53:51;;;;;;;1.83;1.30;;;23.70;99.90;;;;;;4913030;28;20200;-48
2023/08/16 12:56:22;;;;;;;3.83;1.20;;;23.80;99.90;;;;;;4932028;28;20217;-56
2023/08/16 12:58:59;;;;;;;3.15;1.35;;;24.20;99.90;;;;;;4945339;28;20191;-59
2023/08/16 13:01:32;;;;;;;1.70;0.90;;;24.20;99.90;;;;;;4941371;28;20213;-54
2023/08/16 13:03:59;;;;;;;2.65;1.40;;;24.20;99.90;;;;;;4945373;28;20667;-55
2023/08/16 13:06:31;;;;;;;3.78;1.23;;;24.20;99.90;;;;;;4932234;28;20293;-50
2023/08/16 13:09:02;;;;;;;4.15;1.15;;;24.50;99.90;;;;;;4924646;28;20209;-45
2023/08/16 13:12:01;;;;;;;4.25;1.27;;;24.80;99.90;;;;;;4944689;28;20278;-46
2023/08/16 13:14:38;;;;;;;3.10;1.38;;;25.00;99.90;;;;;;4941538;28;20226;-52